Latest Weather Observations for Inverell RS

IDN60801

Issued at 7:32 pm EDT Friday 20 October 2017 (issued every 30 minutes, with the page automatically refreshed every 10 minutes)

About weather observations | Map of weather stations | Latest weather observations for NSW | Other Formats
Station Details ID: 056018 Name: INVERELL RESEARCH CENTRE Lat: -29.78 Lon: 151.08 Height: 664.0 m
Data from the previous 72 hours. | See also: Recent months at Inverell RS
Date/Time
EDT
Temp
°C
App
Temp
°C
Dew
Point
°C
Rel
Hum
%
Delta-T
°C
Wind Press
QNH
hPa
Press
MSL
hPa
Rain since
9am
mm
Dir  Spd
km/h
Gust
km/h
Spd
kts
Gust
kts
20/07:30pm 16.7 18.3 15.9 95 0.5 S 2 6 1 3 1019.2 - 0.6
20/07:00pm 16.9 18.8 15.7 93 0.7 CALM 0 0 0 0 1019.2 - 0.6
20/06:30pm 16.9 17.6 15.6 92 0.8 SE 6 7 3 4 1019.3 - 0.6
20/06:00pm 17.0 17.9 16.0 94 0.6 ESE 6 9 3 5 1019.4 1017.7 0.6
20/05:30pm 17.0 17.8 15.8 93 0.7 E 6 9 3 5 1019.4 - 0.6
20/05:00pm 17.0 17.7 15.5 91 0.9 ENE 6 7 3 4 1019.6 - 0.6
20/04:30pm 16.8 17.7 16.0 95 0.5 ESE 6 9 3 5 1019.6 - 0.4
20/04:00pm 16.9 17.5 15.7 93 0.7 S 7 11 4 6 1020.0 - 0.0
20/03:30pm 18.1 18.4 14.9 81 1.9 WSW 7 11 4 6 1020.3 - 0.0
20/03:00pm 18.9 18.6 14.4 75 2.7 WSW 9 13 5 7 1020.7 1019.0 0.0
20/02:30pm 19.3 18.1 13.9 71 3.2 W 13 17 7 9 1021.0 - 0.0
20/02:00pm 19.1 17.7 13.5 70 3.3 W 13 22 7 12 1021.3 - 0.0
20/01:30pm 20.2 18.6 12.8 62 4.3 W 13 22 7 12 1021.5 - 0.0
20/01:00pm 20.7 19.4 12.4 59 4.8 WNW 11 15 6 8 1021.7 - 0.0
20/12:30pm 21.1 19.3 12.1 56 5.2 NNW 13 17 7 9 1022.0 - 0.0
20/12:00pm 21.3 19.6 12.3 56 5.2 NNW 13 19 7 10 1022.3 1020.6 0.0
20/11:30am 21.1 19.3 12.1 56 5.2 WNW 13 19 7 10 1022.7 - 0.0
20/11:00am 20.3 18.3 11.5 57 5.0 NNW 13 19 7 10 1023.1 - 0.0
20/10:30am 20.0 18.3 11.3 57 4.9 N 11 17 6 9 1023.5 - 0.0
20/10:00am 19.3 17.7 11.7 61 4.3 NNW 11 19 6 10 1023.8 - 0.0
20/09:30am 19.4 17.6 12.2 63 4.1 N 13 19 7 10 1023.9 - 0.0
20/09:00am 17.5 16.2 12.6 73 2.8 NNE 11 17 6 9 1023.8 1022.1 0.0
20/08:30am 16.6 15.8 12.9 79 2.1 NNE 9 13 5 7 1023.9 - 0.0
20/08:00am 15.4 16.3 12.8 84 1.5 CALM 0 0 0 0 1023.8 - 0.0
20/07:30am 14.4 15.2 12.4 88 1.1 CALM 0 0 0 0 1023.6 - 0.0
20/07:00am 13.9 14.5 11.9 88 1.1 CALM 0 0 0 0 1023.5 - 0.0
20/06:30am 13.4 12.6 11.6 89 1.0 N 7 7 4 4 1023.1 - 0.0
20/06:00am 13.0 12.3 11.5 91 0.8 N 6 7 3 4 1022.7 1021.0 0.0
20/05:30am 12.3 12.6 11.0 92 0.7 CALM 0 0 0 0 1022.4 - 0.0
20/05:00am 12.9 12.1 11.2 89 0.9 NE 6 9 3 5 1022.2 - 0.0
20/04:30am 12.9 12.1 11.2 89 0.9 N 6 9 3 5 1022.3 - 0.0
20/04:00am 13.4 12.5 11.4 88 1.1 N 7 9 4 5 1022.6 - 0.0
20/03:30am 13.6 12.7 11.4 86 1.2 N 7 11 4 6 1022.9 - 0.0
20/03:00am 13.7 12.5 11.7 88 1.1 N 9 11 5 6 1023.1 1021.5 0.0
20/02:30am 14.0 12.4 11.5 85 1.4 N 11 13 6 7 1023.4 - 0.0
20/02:00am 14.5 13.2 11.2 80 1.8 N 9 13 5 7 1023.8 - 0.0
20/01:30am 14.6 13.3 11.3 80 1.8 N 9 13 5 7 1024.1 - 0.0
20/01:00am 15.2 13.5 11.2 77 2.2 N 11 15 6 8 1024.3 - 0.0
20/12:30am 15.0 13.7 11.2 78 2.1 N 9 11 5 6 1024.3 - 0.0
20/12:00am 15.7 14.8 11.2 74 2.5 N 7 11 4 6 1024.4 1022.8 0.0
 
Date/Time
EDT
Temp
°C
App
Temp
°C
Dew
Point
°C
Rel
Hum
%
Delta-T
°C
Wind Press
QNH
hPa
Press
MSL
hPa
Rain since
9am
mm
Dir  Spd
km/h
Gust
km/h
Spd
kts
Gust
kts
19/11:30pm 16.6 15.6 11.0 69 3.1 NNE 7 11 4 6 1024.6 - 0.0
19/11:00pm 16.8 15.4 11.0 68 3.2 N 9 11 5 6 1024.8 - 0.0
19/10:30pm 17.3 16.4 11.2 67 3.4 N 7 11 4 6 1024.7 - 0.0
19/10:00pm 17.6 16.6 10.9 65 3.7 NNW 7 9 4 5 1024.6 - 0.0
19/09:30pm 18.6 17.6 11.1 61 4.2 N 7 9 4 5 1024.5 - 0.0
19/09:00pm 18.8 17.9 11.3 61 4.2 N 7 11 4 6 1024.4 1022.8 0.0
19/08:30pm 19.1 17.7 10.9 59 4.6 NNW 9 11 5 6 1024.1 - 0.0
19/08:00pm 20.1 18.6 10.6 54 5.3 NW 9 13 5 7 1023.9 - 0.0
19/07:30pm 20.2 18.9 11.4 57 5.0 NW 9 13 5 7 1023.5 - 0.0
19/07:00pm 21.5 20.5 12.2 55 5.4 NNW 9 11 5 6 1023.3 - 0.0
19/06:30pm 22.7 21.2 12.0 50 6.2 NNW 11 15 6 8 1023.1 - 0.0
19/06:00pm 23.7 21.7 11.4 46 7.1 N 13 20 7 11 1022.9 1021.3 0.0
19/05:30pm 24.0 21.6 11.4 45 7.3 NNW 15 20 8 11 1022.6 - 0.0
19/05:00pm 24.4 23.0 11.0 43 7.7 N 9 15 5 8 1022.6 - 0.0
19/04:30pm 24.6 21.7 11.1 42 7.8 N 17 22 9 12 1022.9 - 0.0
19/04:00pm 24.1 22.7 10.8 43 7.6 N 9 17 5 9 1023.0 - 0.0
19/03:30pm 24.1 22.6 10.6 42 7.7 NNE 9 15 5 8 1023.3 - 0.0
19/03:00pm 24.5 23.0 10.5 41 8.0 N 9 15 5 8 1023.5 1021.9 0.0
19/02:30pm 24.5 22.7 10.9 42 7.8 NNW 11 20 6 11 1024.3 - 0.0
19/02:00pm 23.6 21.6 10.1 42 7.6 N 11 17 6 9 1024.8 - 0.0
19/01:30pm 23.6 22.4 11.7 47 6.9 N 9 19 5 10 1025.2 - 0.0
19/01:00pm 22.6 21.0 10.3 45 6.9 NNE 9 19 5 10 1025.7 - 0.0
19/12:30pm 22.4 20.5 10.5 47 6.7 NNE 11 24 6 13 1026.0 - 0.0
19/12:00pm 21.6 19.8 11.0 51 6.0 ENE 11 20 6 11 1026.4 1024.8 0.0
19/11:30am 20.3 17.4 9.5 50 5.9 ENE 15 20 8 11 1026.8 - 0.0
19/11:00am 20.1 17.5 10.8 55 5.2 NE 15 26 8 14 1027.1 - 0.0
19/10:30am 18.5 14.9 9.9 57 4.7 NE 19 30 10 16 1027.3 - 0.0
19/10:00am 18.6 15.5 10.4 59 4.5 NE 17 30 9 16 1027.5 - 0.0
19/09:30am 18.2 14.6 10.0 58 4.5 NNE 19 30 10 16 1027.3 - 0.0
19/09:00am 18.1 15.6 10.9 63 4.0 NE 15 20 8 11 1027.3 1025.7 0.0
19/08:30am 17.1 14.9 10.7 66 3.5 NNE 13 19 7 10 1027.1 - 0.0
19/08:00am 16.4 14.1 10.3 67 3.3 NE 13 20 7 11 1027.1 - 0.0
19/07:30am 14.7 12.7 10.0 73 2.5 NNE 11 15 6 8 1026.8 - 0.0
19/07:00am 13.7 12.5 10.3 80 1.8 NNE 7 11 4 6 1026.6 - 0.0
19/06:30am 13.9 12.0 10.4 79 1.9 NE 11 17 6 9 1026.3 - 0.0
19/06:00am 14.1 11.7 10.2 77 2.1 NNE 13 19 7 10 1025.9 1024.3 0.0
19/05:30am 13.7 12.1 10.3 80 1.8 NNE 9 11 5 6 1025.7 - 0.0
19/05:00am 13.6 12.0 10.2 80 1.8 NE 9 11 5 6 1025.5 - 0.0
19/04:30am 14.0 12.0 10.1 77 2.1 NNE 11 15 6 8 1025.6 - 0.0
19/04:00am 14.5 12.9 10.2 75 2.3 NE 9 13 5 7 1025.7 - 0.0
19/03:30am 14.4 12.8 10.1 75 2.3 NE 9 13 5 7 1025.9 - 0.0
19/03:00am 14.3 12.6 9.8 74 2.4 NNE 9 13 5 7 1026.2 1024.6 0.0
19/02:30am 14.3 12.5 9.6 73 2.5 NE 9 13 5 7 1026.4 - 0.0
19/02:00am 14.2 12.1 9.7 74 2.4 NE 11 13 6 7 1026.6 - 0.0
19/01:30am 14.2 11.8 9.9 75 2.3 NE 13 22 7 12 1027.1 - 0.0
19/01:00am 14.7 12.2 9.6 71 2.7 NE 13 20 7 11 1027.3 - 0.0
19/12:30am 14.2 12.1 9.9 75 2.3 NE 11 17 6 9 1027.5 - 0.0
19/12:00am 14.7 12.2 9.8 72 2.6 NE 13 19 7 10 1027.7 1026.1 0.0
 
Date/Time
EDT
Temp
°C
App
Temp
°C
Dew
Point
°C
Rel
Hum
%
Delta-T
°C
Wind Press
QNH
hPa
Press
MSL
hPa
Rain since
9am
mm
Dir  Spd
km/h
Gust
km/h
Spd
kts
Gust
kts
18/11:30pm 14.8 12.4 9.9 72 2.6 NE 13 20 7 11 1027.7 - 0.0
18/11:00pm 15.1 13.0 9.9 71 2.8 ENE 11 17 6 9 1027.8 - 0.0
18/10:30pm 15.2 12.4 10.0 71 2.8 NE 15 20 8 11 1027.7 - 0.0
18/10:00pm 15.5 12.7 9.9 69 3.0 NE 15 26 8 14 1027.6 - 0.0
18/09:30pm 15.4 13.4 10.0 70 2.9 ENE 11 19 6 10 1027.3 - 0.0
18/09:00pm 15.9 13.0 9.8 67 3.3 NE 15 24 8 13 1027.0 1025.4 0.0
18/08:30pm 16.1 13.7 10.0 67 3.3 NE 13 20 7 11 1026.7 - 0.0
18/08:00pm 16.5 14.1 10.0 65 3.5 NE 13 19 7 10 1026.4 - 0.0
18/07:30pm 17.0 13.4 9.8 62 3.9 ENE 19 30 10 16 1025.8 - 0.0
18/07:00pm 17.5 13.7 9.8 60 4.2 ENE 20 30 11 16 1025.5 - 0.0
18/06:30pm 18.1 13.9 9.8 58 4.5 ENE 22 37 12 20 1025.2 - 0.0
18/06:00pm 18.3 12.7 10.3 59 4.4 ENE 30 39 16 21 1025.0 1023.4 0.0
18/05:30pm 19.1 14.5 9.8 55 5.1 ENE 24 37 13 20 1024.9 - 0.0
18/05:00pm 19.8 15.0 10.4 54 5.2 ENE 26 35 14 19 1024.9 - 0.0
18/04:30pm 19.8 15.2 10.9 56 5.0 ENE 26 35 14 19 1024.7 - 0.0
18/04:00pm 19.3 14.6 10.5 56 4.9 ENE 26 35 14 19 1024.9 - 0.0
18/03:30pm 19.3 15.0 10.9 58 4.7 NE 24 37 13 20 1025.1 - 0.0
18/03:00pm 20.3 15.7 10.9 54 5.3 ENE 26 37 14 20 1025.2 1023.6 0.0
18/02:30pm 21.4 16.5 11.2 52 5.8 ENE 28 43 15 23 1025.4 - 0.0
18/02:00pm 21.1 16.2 11.4 54 5.5 E 28 41 15 22 1025.6 - 0.0
18/01:30pm 21.2 15.5 11.1 52 5.7 E 32 43 17 23 1025.8 - 0.0
18/01:00pm 21.6 17.2 11.7 53 5.7 ENE 26 37 14 20 1026.0 - 0.0
18/12:30pm 20.9 16.3 11.2 54 5.5 ENE 26 37 14 20 1026.3 - 0.0
18/12:00pm 20.7 15.2 10.7 52 5.6 ENE 30 39 16 21 1026.5 1024.9 0.0
18/11:30am 20.2 14.2 10.7 54 5.3 E 33 41 18 22 1026.8 - 0.0
18/11:19am 20.1 14.0 10.6 54 5.3 E 33 52 18 28 1026.8 - 0.0
18/11:00am 19.5 13.6 10.5 56 5.0 E 32 41 17 22 1027.0 - 0.0
18/10:30am 18.9 13.1 10.8 59 4.5 E 32 46 17 25 1027.0 - 0.0
18/10:00am 19.2 13.9 11.2 60 4.5 E 30 44 16 24 1026.7 - 0.0
18/09:31am 19.0 14.0 11.1 60 4.4 E 28 46 15 25 1026.5 - 0.0
18/09:30am 18.9 14.3 11.2 61 4.3 E 26 46 14 25 1026.5 - 0.0
18/09:23am 18.4 13.2 10.4 59 4.4 E 28 46 15 25 1026.5 - 0.0
18/09:00am 17.4 12.2 10.1 62 4.0 E 28 43 15 23 1026.4 1024.8 0.0
18/08:30am 17.2 12.6 9.6 61 4.1 E 24 33 13 18 1026.0 - 0.0
18/08:00am 16.4 11.0 9.5 63 3.7 E 28 41 15 22 1025.8 - 0.0
18/07:30am 15.4 10.9 8.7 64 3.5 E 22 33 12 18 1025.6 - 0.0
18/07:00am 14.9 9.7 8.8 67 3.2 E 26 39 14 21 1025.5 - 0.0
18/06:30am 14.8 9.7 9.1 68 3.0 ENE 26 37 14 20 1024.9 - 0.0
18/06:00am 14.6 9.6 9.5 71 2.7 E 26 35 14 19 1024.4 1022.8 0.0
18/05:30am 15.1 9.7 9.5 69 3.0 E 28 41 15 22 1024.0 - 0.0
18/05:00am 15.1 9.2 9.2 68 3.1 E 30 44 16 24 1023.8 - 0.0
18/04:30am 15.1 9.1 8.8 66 3.3 ENE 30 39 16 21 1023.6 - 0.0
18/04:00am 14.9 10.1 9.0 68 3.1 ENE 24 35 13 19 1023.9 - 0.0
18/03:30am 14.8 10.6 8.2 64 3.4 ENE 20 33 11 18 1024.1 - 0.0
18/03:00am 14.6 8.9 8.2 65 3.3 E 28 35 15 19 1024.2 1022.6 0.0
18/02:30am 14.5 10.8 7.9 64 3.4 NE 17 24 9 13 1024.9 - 0.0
18/02:00am 14.5 10.8 8.1 65 3.3 ENE 17 33 9 18 1024.9 - 0.0
18/01:30am 14.7 10.7 8.3 65 3.3 ENE 19 26 10 14 1024.9 - 0.0
18/01:00am 14.8 11.0 8.9 68 3.1 E 19 28 10 15 1024.9 - 0.0
18/12:30am 15.1 11.0 8.8 66 3.3 ENE 20 33 11 18 1025.6 - 0.0
18/12:00am 15.1 10.7 8.8 66 3.3 ENE 22 32 12 17 1025.9 1024.3 0.0
 
Date/Time
EDT
Temp
°C
App
Temp
°C
Dew
Point
°C
Rel
Hum
%
Delta-T
°C
Wind Press
QNH
hPa
Press
MSL
hPa
Rain since
9am
mm
Dir  Spd
km/h
Gust
km/h
Spd
kts
Gust
kts
17/11:30pm 15.0 11.2 8.9 67 3.2 ENE 19 30 10 16 1025.8 - 0.0
17/11:00pm 15.1 11.2 8.8 66 3.3 E 19 28 10 15 1025.8 - 0.0
17/10:30pm 15.2 11.7 8.9 66 3.3 ENE 17 28 9 15 1025.7 - 0.0
17/10:00pm 15.4 11.0 8.9 65 3.4 ENE 22 32 12 17 1025.8 - 0.0
17/09:30pm 15.4 12.2 8.5 63 3.6 ENE 15 22 8 12 1025.5 - 0.0
17/09:00pm 15.6 12.6 9.4 66 3.3 ENE 15 30 8 16 1025.2 1023.6 0.0
17/08:30pm 15.9 13.3 9.5 66 3.4 ENE 13 19 7 10 1024.6 - 0.0
17/08:00pm 16.4 13.5 9.5 63 3.7 ENE 15 22 8 12 1024.4 - 0.0

Other Formats:

Comma delimited format used in spreadsheet applications
http://www.bom.gov.au/fwo/IDN60801/IDN60801.94541.axf

JavaScript Object Notation format (JSON) in row-major order
http://www.bom.gov.au/fwo/IDN60801/IDN60801.94541.json